Friday, November 24, 2017, 12:32 AM EST
Back to Local

KITH, Ithaca, Ithaca Tompkins Regional Airport

Location: Ithaca, NY, United States Lat: 42.491
Local Time: 12:32 AM EST ( 5:32 GMT) Lon: -76.458
Time Zone: US/Eastern Elev: 1099 ft

Show me the last for .
Show Decoded

2017-11-23 23:56 METAR KITH 240456Z AUTO 19006KT 10SM OVC036 01/M06 A2997 RMK AO2 SLP161
                 T00061056 =
2017-11-23 22:56 METAR KITH 240356Z AUTO 19006KT 10SM SCT040 BKN050 OVC075 01/M06 A2996 RMK AO2
                 SLP157 T00061056 400171039 =
2017-11-23 21:56 METAR KITH 240256Z 19006KT 10SM OVC040 01/M05 A2997 RMK AO2 SLP159 T00111050
                 50001 =
2017-11-23 20:56 METAR KITH 240156Z 15004KT 10SM OVC048 01/M05 A2997 RMK AO2 SLP162 T00061050 =
2017-11-23 19:56 METAR KITH 240056Z 16004KT 10SM SCT048 OVC065 00/M05 A2998 RMK AO2 SLP166
                 T00001050 =
2017-11-23 18:56 METAR KITH 232356Z 15005KT 10SM OVC027 00/M05 A2997 RMK AO2 SLP160 T00001050
                 10017 20000 55006 =
2017-11-23 17:56 METAR KITH 232256Z 16005KT 10SM OVC027 00/M05 A2996 RMK AO2 SLP158 T00001050 =
2017-11-23 16:56 METAR KITH 232156Z 21003KT 10SM OVC025 01/M06 A2997 RMK AO2 SLP162 T00061056 =
2017-11-23 15:56 METAR KITH 232056Z 21006KT 10SM OVC021 01/M05 A2999 RMK AO2 SLP166 T00061050
                 56013 =
2017-11-23 14:56 METAR KITH 231956Z 27009KT 10SM BKN022 OVC100 01/M06 A2999 RMK AO2 SLP167
                 T00061056 =
2017-11-23 13:56 METAR KITH 231856Z 24008KT 10SM SCT030 BKN080 01/M06 A3000 RMK AO2 SLP172
                 T00061061 =
2017-11-23 12:56 METAR KITH 231756Z 19006KT 10SM BKN100 02/M07 A3002 RMK AO2 SLP179 T00171067
                 10017 21033 58030 =
2017-11-23 11:56 METAR KITH 231656Z 20006KT 10SM BKN080 01/M07 A3006 RMK AO2 SLP191 T00061067 =
2017-11-23 10:56 METAR KITH 231556Z 21005KT 10SM FEW033 00/M06 A3010 RMK AO2 SLP204 T00001061 =
2017-11-23 09:56 METAR KITH 231456Z 23004KT 10SM SCT033 M01/M07 A3012 RMK AO2 SLP212 T10111067
                 51002 =
2017-11-23 08:56 METAR KITH 231356Z 19003KT 10SM BKN035 M02/M07 A3011 RMK AO2 SLP210 T10171067 =
2017-11-23 08:29 METAR KITH 231329Z 23004KT 10SM SCT027 OVC037 M02/M07 A3011 RMK AO2 =
2017-11-23 07:56 METAR KITH 231256Z 25005KT 10SM OVC027 M03/M07 A3012 RMK AO2 SLP212 T10281067 =
2017-11-23 06:56 METAR KITH 231156Z 30003KT 10SM FEW020 OVC030 M03/M07 A3011 RMK AO2 SLP210 60000
                 70003 T10331067 11028 21039 55004 =
2017-11-23 06:30 METAR KITH 231130Z 33006KT 10SM BKN030 M04/M07 A3011 RMK AO2 =
2017-11-23 06:09 METAR KITH 231109Z AUTO 32006KT 10SM OVC030 M04/M07 A3010 RMK AO2 =
2017-11-23 05:56 METAR KITH 231056Z AUTO 30007KT 10SM OVC028 M03/M07 A3011 RMK AO2 SLP208
                 T10331072 =
2017-11-23 04:56 METAR KITH 230956Z AUTO 27006KT 10SM OVC023 M03/M07 A3012 RMK AO2 SLP213
                 T10281072 =
2017-11-23 03:56 METAR KITH 230856Z AUTO 28007KT 10SM OVC025 M03/M07 A3012 RMK AO2 SLP213 60000
                 T10281067 58001 =
2017-11-23 02:56 METAR KITH 230756Z AUTO 27010KT 10SM OVC023 M03/M07 A3014 RMK AO2 SNE46 SLP219
                 P0000 T10281067 =
2017-11-23 01:56 METAR KITH 230656Z AUTO 28009KT 9SM -SN OVC023 M03/M07 A3012 RMK AO2 SLP214
                 P0000 T10281067 =
2017-11-23 00:56 METAR KITH 230556Z AUTO 31009KT 9SM -SN OVC025 M03/M07 A3012 RMK AO2 SNB03E14B51
                 SLP214 P0000 60000 T10281067 11022 21028 56006 =

Support USWX by starting your Amazon purchase here.